createdAt,value
2019-05-06T11:05:29.593Z,56.40
2019-05-06T11:08:02.236Z,57.00
2019-05-06T11:10:39.799Z,56.70
2019-05-06T11:13:00.196Z,56.40
2019-05-06T11:15:28.761Z,55.70
2019-05-06T11:17:58.174Z,55.30
2019-05-06T11:20:26.628Z,55.10
2019-05-06T11:22:55.003Z,55.50
2019-05-06T11:25:23.374Z,55.30
2019-05-06T11:27:52.650Z,55.20
2019-05-06T11:30:24.794Z,55.20
2019-05-06T11:33:04.812Z,55.10
2019-05-06T11:35:53.552Z,54.90
2019-05-06T11:38:22.738Z,55.10
2019-05-06T11:40:52.942Z,55.40
2019-05-06T11:43:22.717Z,55.60
2019-05-06T11:45:52.113Z,55.40
2019-05-06T11:48:22.328Z,54.50
2019-05-06T11:50:52.317Z,54.40
2019-05-06T11:53:22.944Z,54.40
2019-05-06T11:55:54.444Z,54.00
2019-05-06T11:58:38.500Z,54.20
2019-05-06T12:01:08.496Z,54.00
2019-05-06T12:03:36.862Z,53.60
2019-05-06T12:06:05.217Z,53.50
2019-05-06T12:08:33.568Z,53.20
2019-05-06T12:11:02.978Z,53.40
2019-05-06T12:13:33.527Z,53.10
2019-05-06T12:16:02.391Z,53.40
2019-05-06T12:18:30.868Z,53.00
2019-05-06T12:21:10.998Z,53.30
2019-05-06T12:23:29.255Z,53.40
2019-05-06T12:25:57.704Z,53.50
2019-05-06T12:28:26.279Z,53.60
2019-05-06T12:30:55.380Z,53.40
2019-05-06T12:33:28.073Z,53.30
2019-05-06T12:35:58.087Z,53.20
2019-05-06T12:38:30.988Z,53.20
2019-05-06T12:40:59.860Z,53.40
2019-05-06T12:43:29.750Z,53.30
2019-05-06T12:46:05.829Z,53.40
2019-05-06T12:48:45.026Z,53.50
2019-05-06T12:51:13.373Z,53.00
2019-05-06T12:53:42.780Z,53.20
2019-05-06T12:56:12.395Z,52.90
2019-05-06T12:58:44.007Z,52.20
2019-05-06T13:01:13.714Z,52.20
2019-05-06T13:03:43.098Z,52.20
2019-05-06T13:06:12.941Z,52.30
2019-05-06T13:08:53.970Z,53.20
2019-05-06T13:11:13.000Z,52.50
2019-05-06T13:13:56.149Z,52.30
2019-05-06T13:16:12.609Z,52.30
2019-05-06T13:18:47.003Z,52.10
2019-05-06T13:21:12.694Z,51.90
2019-05-06T13:23:45.992Z,52.10
2019-05-06T13:26:14.355Z,51.80
2019-05-06T13:28:44.347Z,51.10
2019-05-06T13:31:19.893Z,50.80
2019-05-06T13:33:47.534Z,50.80
2019-05-06T13:36:16.123Z,50.50
2019-05-06T13:38:44.469Z,50.80
2019-05-06T13:41:12.829Z,51.10
2019-05-06T13:43:43.620Z,51.30
2019-05-06T13:46:23.665Z,51.50
2019-05-06T13:49:02.951Z,51.40
2019-05-06T13:51:39.155Z,51.60
2019-05-06T13:54:07.541Z,51.60
2019-05-06T13:56:35.903Z,51.50
2019-05-06T13:59:05.268Z,51.40
2019-05-06T14:01:43.908Z,51.20
2019-05-06T14:04:13.067Z,51.20
2019-05-06T14:06:43.274Z,51.40
2019-05-06T14:09:28.109Z,51.40
2019-05-06T14:11:41.969Z,51.30
2019-05-06T14:14:12.524Z,51.20
2019-05-06T14:16:42.679Z,51.20
2019-05-06T14:19:12.964Z,50.90
2019-05-06T14:21:42.926Z,50.80
2019-05-06T14:24:13.007Z,50.90
2019-05-06T14:26:44.829Z,51.00
2019-05-06T14:29:13.932Z,51.20
2019-05-06T14:31:52.303Z,51.30
2019-05-06T14:34:19.843Z,51.30
2019-05-06T14:36:48.204Z,51.30
2019-05-06T14:39:18.214Z,51.10
2019-05-06T14:41:48.226Z,51.30
2019-05-06T14:44:16.568Z,51.20
2019-05-06T14:46:49.305Z,51.20
2019-05-06T14:49:17.652Z,51.10
2019-05-06T14:51:46.022Z,51.20
2019-05-06T14:54:14.766Z,51.10
2019-05-06T14:56:50.755Z,51.00
2019-05-06T14:59:19.052Z,50.60
2019-05-06T15:01:47.424Z,50.60
2019-05-06T15:04:15.772Z,50.70
2019-05-06T15:06:44.128Z,50.60
2019-05-06T15:09:13.365Z,50.70
2019-05-06T15:11:43.403Z,50.80
2019-05-06T15:14:13.047Z,50.80
2019-05-06T15:16:42.269Z,50.60
2019-05-06T15:19:12.837Z,50.60
2019-05-06T15:21:42.770Z,50.60
2019-05-06T15:24:13.495Z,50.40
2019-05-06T15:26:42.479Z,50.70
2019-05-06T15:29:12.710Z,50.80
2019-05-06T15:31:45.878Z,50.80
2019-05-06T15:34:33.433Z,50.80
2019-05-06T15:37:03.549Z,50.70
2019-05-06T15:39:32.705Z,50.80
2019-05-06T15:42:01.264Z,50.80
2019-05-06T15:44:31.827Z,50.50
2019-05-06T15:46:59.712Z,50.70
2019-05-06T15:49:28.070Z,50.50
2019-05-06T15:51:56.453Z,50.40
2019-05-06T15:54:24.799Z,50.50
2019-05-06T15:56:53.393Z,50.50
2019-05-06T15:59:22.928Z,50.50
2019-05-06T16:01:53.125Z,50.50
2019-05-06T16:04:22.895Z,50.50
2019-05-06T16:06:52.893Z,50.50
2019-05-06T16:09:23.396Z,50.30
2019-05-06T16:11:53.419Z,50.20
2019-05-06T16:14:22.977Z,50.20
2019-05-06T16:16:52.789Z,50.20
2019-05-06T16:19:22.873Z,50.30
2019-05-06T16:21:52.418Z,50.30
2019-05-06T16:24:22.662Z,50.20
2019-05-06T16:26:52.737Z,50.00
2019-05-06T16:29:22.673Z,50.00
2019-05-06T16:31:51.882Z,50.00
2019-05-06T16:34:22.633Z,49.90
2019-05-06T16:36:50.288Z,49.80
2019-05-06T16:39:18.653Z,49.90
2019-05-06T16:41:47.001Z,49.80
2019-05-06T16:44:15.370Z,49.80
2019-05-06T16:46:43.712Z,50.10
2019-05-06T16:49:14.108Z,50.20
2019-05-06T16:51:44.075Z,49.70
2019-05-06T16:54:12.419Z,49.90
2019-05-06T16:56:44.668Z,49.90
2019-05-06T16:59:12.516Z,50.00
2019-05-06T17:01:42.682Z,50.00
2019-05-06T17:04:15.654Z,50.00
2019-05-06T17:06:45.653Z,50.10
2019-05-06T17:09:20.739Z,50.50
2019-05-06T17:11:44.019Z,49.80
2019-05-06T17:14:12.436Z,50.40
2019-05-06T17:16:42.324Z,49.80
2019-05-06T17:19:12.719Z,49.80
2019-05-06T17:21:42.320Z,49.70
2019-05-06T17:24:12.887Z,49.70
2019-05-06T17:26:42.666Z,49.50
2019-05-06T17:29:22.716Z,49.60
2019-05-06T17:31:55.786Z,49.60
2019-05-06T17:34:37.533Z,49.50
2019-05-06T17:37:07.534Z,49.50
2019-05-06T17:39:35.897Z,49.50
2019-05-06T17:42:04.259Z,49.40
2019-05-06T17:44:32.791Z,49.40
2019-05-06T17:47:02.988Z,49.40
2019-05-06T17:49:32.998Z,49.30
2019-05-06T17:52:05.821Z,49.30
2019-05-06T17:54:34.179Z,49.30
2019-05-06T17:57:04.682Z,49.20
2019-05-06T17:59:33.332Z,49.20
2019-05-06T18:02:04.188Z,49.20
2019-05-06T18:04:34.442Z,49.10
2019-05-06T18:07:02.573Z,49.10
2019-05-06T18:09:32.967Z,49.20
2019-05-06T18:12:03.053Z,49.10
2019-05-06T18:14:33.113Z,49.10
2019-05-06T18:17:00.939Z,49.10
2019-05-06T18:19:29.646Z,49.10
2019-05-06T18:21:57.992Z,49.00
2019-05-06T18:24:26.339Z,49.00
2019-05-06T18:26:54.700Z,49.00
2019-05-06T18:29:23.056Z,49.00
2019-05-06T18:31:52.445Z,48.90
2019-05-06T18:34:23.033Z,48.90
2019-05-06T18:36:52.497Z,48.90
2019-05-06T18:39:22.266Z,49.00
2019-05-06T18:41:53.126Z,49.10
2019-05-06T18:44:22.684Z,49.10
2019-05-06T18:46:52.906Z,49.00
2019-05-06T18:49:22.189Z,49.00
2019-05-06T18:51:51.993Z,48.90
2019-05-06T18:54:22.071Z,48.90
2019-05-06T18:56:52.213Z,49.50
2019-05-06T18:59:22.994Z,48.80
2019-05-06T19:01:50.779Z,48.80
2019-05-06T19:04:23.505Z,48.90
2019-05-06T19:07:08.653Z,48.90
2019-05-06T19:09:35.713Z,48.90
2019-05-06T19:12:04.384Z,48.90
2019-05-06T19:14:33.323Z,48.90
2019-05-06T19:17:02.727Z,49.50
2019-05-06T19:19:34.242Z,49.00
2019-05-06T19:22:02.862Z,48.90
2019-05-06T19:24:33.495Z,48.90
2019-05-06T19:27:02.120Z,48.90
2019-05-06T19:29:32.726Z,49.00
2019-05-06T19:32:02.813Z,48.90
2019-05-06T19:34:34.553Z,48.90
2019-05-06T19:37:02.463Z,48.90
2019-05-06T19:39:32.947Z,48.90
2019-05-06T19:42:02.891Z,48.80
2019-05-06T19:44:30.859Z,48.80
2019-05-06T19:46:59.228Z,48.70
2019-05-06T19:49:27.596Z,48.80
2019-05-06T19:51:55.937Z,48.70
2019-05-06T19:54:24.299Z,48.80
2019-05-06T19:56:52.823Z,49.00
2019-05-06T19:59:21.423Z,49.10
2019-05-06T20:01:49.774Z,49.70
2019-05-06T20:04:18.290Z,48.90
2019-05-06T20:06:48.300Z,48.80
2019-05-06T20:09:24.290Z,48.70
2019-05-06T20:11:54.287Z,48.70
2019-05-06T20:14:22.648Z,48.70
2019-05-06T20:16:52.881Z,48.70
2019-05-06T20:19:28.099Z,48.60
2019-05-06T20:21:52.725Z,48.70
2019-05-06T20:24:22.514Z,48.70
2019-05-06T20:26:52.728Z,48.60
2019-05-06T20:29:22.415Z,48.60
2019-05-06T20:31:53.329Z,48.50
2019-05-06T20:34:22.370Z,48.50
2019-05-06T20:36:52.791Z,48.50
2019-05-06T20:39:23.018Z,48.50
2019-05-06T20:41:51.550Z,48.40
2019-05-06T20:44:19.912Z,48.50
2019-05-06T20:46:48.261Z,48.50
2019-05-06T20:49:16.623Z,48.50
2019-05-06T20:51:44.983Z,48.40
2019-05-06T20:54:13.336Z,48.50
2019-05-06T20:56:42.227Z,48.50
2019-05-06T20:59:12.175Z,48.50
2019-05-06T21:01:42.507Z,48.50
2019-05-06T21:04:12.899Z,48.50
2019-05-06T21:06:42.557Z,48.40
2019-05-06T21:09:12.598Z,48.40
2019-05-06T21:11:42.122Z,48.40
2019-05-06T21:14:13.057Z,48.40
2019-05-06T21:16:42.280Z,48.40
2019-05-06T21:19:12.614Z,48.50
2019-05-06T21:21:42.952Z,48.40
2019-05-06T21:24:12.814Z,48.40
2019-05-06T21:26:42.922Z,48.40
2019-05-06T21:29:12.727Z,48.40
2019-05-06T21:31:42.283Z,48.40
2019-05-06T21:34:12.655Z,48.60
2019-05-06T21:36:42.258Z,48.60
2019-05-06T21:39:12.816Z,48.50
2019-05-06T21:41:42.708Z,48.50
2019-05-06T21:44:13.008Z,48.40
2019-05-06T21:46:42.711Z,48.40
2019-05-06T21:49:12.096Z,48.50
2019-05-06T21:51:42.620Z,48.50
2019-05-06T21:54:12.547Z,48.50
2019-05-06T21:56:42.464Z,48.50
2019-05-06T21:59:12.677Z,48.50
2019-05-06T22:01:42.930Z,49.00
2019-05-06T22:04:12.790Z,48.40
2019-05-06T22:06:42.761Z,48.30
2019-05-06T22:09:12.885Z,48.40
2019-05-06T22:11:42.342Z,48.40
2019-05-06T22:14:12.254Z,48.40
2019-05-06T22:16:40.858Z,48.50
2019-05-06T22:19:09.201Z,48.50
2019-05-06T22:21:42.562Z,48.40
2019-05-06T22:24:12.119Z,48.50
2019-05-06T22:26:40.515Z,48.40
2019-05-06T22:29:08.868Z,48.40
2019-05-06T22:31:37.296Z,48.50
2019-05-06T22:34:05.649Z,48.50
2019-05-06T22:36:34.008Z,48.50
2019-05-06T22:39:02.647Z,48.40
2019-05-06T22:41:32.578Z,48.40
2019-05-06T22:44:12.465Z,48.40
2019-05-06T22:46:32.944Z,48.40
2019-05-06T22:49:02.466Z,48.40
2019-05-06T22:51:32.293Z,48.40
2019-05-06T22:54:02.702Z,48.40
2019-05-06T22:56:32.487Z,48.40
2019-05-06T22:59:03.219Z,48.40
2019-05-06T23:01:49.556Z,48.40
2019-05-06T23:04:19.540Z,48.40
2019-05-06T23:06:47.893Z,48.40
2019-05-06T23:09:16.263Z,48.50
2019-05-06T23:11:44.615Z,48.50
2019-05-06T23:14:27.624Z,48.50
2019-05-06T23:16:42.971Z,48.50
2019-05-06T23:19:11.332Z,48.60
2019-05-06T23:21:39.683Z,48.60
2019-05-06T23:24:08.048Z,48.50
2019-05-06T23:26:36.410Z,48.50
2019-05-06T23:29:04.756Z,48.60
2019-05-06T23:31:33.409Z,48.60
2019-05-06T23:34:04.905Z,48.60
2019-05-06T23:36:45.401Z,48.60
2019-05-06T23:39:57.589Z,48.60
2019-05-06T23:43:03.235Z,48.60
2019-05-06T23:46:08.148Z,48.60
2019-05-06T23:49:13.039Z,48.70
2019-05-06T23:52:17.573Z,48.60
2019-05-06T23:55:22.162Z,48.70
2019-05-06T23:57:49.593Z,48.80
